createdAt,value
2023-04-16T00:00:58.066Z,3.15
2023-04-16T00:06:04.012Z,3.42
2023-04-16T00:11:07.901Z,4.13
2023-04-16T00:16:11.556Z,4.70
2023-04-16T00:21:16.836Z,3.95
2023-04-16T00:31:28.554Z,3.45
2023-04-16T00:36:33.902Z,5.35
2023-04-16T00:46:40.632Z,2.38
2023-04-16T00:51:45.957Z,4.05
2023-04-16T00:56:50.031Z,5.05
2023-04-16T01:01:53.675Z,14.25
2023-04-16T01:06:58.973Z,3.65
2023-04-16T01:12:02.672Z,1.92
2023-04-16T01:17:06.374Z,4.22
2023-04-16T01:22:11.678Z,4.45
2023-04-16T01:27:15.285Z,5.75
2023-04-16T01:32:18.881Z,3.25
2023-04-16T01:37:24.160Z,3.38
2023-04-16T01:42:27.789Z,4.45
2023-04-16T01:47:31.423Z,3.65
2023-04-16T01:52:36.750Z,4.60
2023-04-16T01:57:40.538Z,3.28
2023-04-16T02:02:44.323Z,4.70
2023-04-16T02:07:49.851Z,4.38
2023-04-16T02:12:53.424Z,5.05
2023-04-16T02:17:57.369Z,5.30
2023-04-16T02:23:02.791Z,6.90
2023-04-16T02:28:06.638Z,5.10
2023-04-16T02:33:11.991Z,5.75
2023-04-16T02:38:17.235Z,5.82
2023-04-16T02:43:20.821Z,7.10
2023-04-16T02:48:24.520Z,6.80
2023-04-16T02:53:29.801Z,4.78
2023-04-16T02:58:33.518Z,4.97
2023-04-16T03:03:37.116Z,6.18
2023-04-16T03:08:42.389Z,6.55
2023-04-16T03:13:45.976Z,4.13
2023-04-16T03:18:49.667Z,8.15
2023-04-16T03:23:55.018Z,7.20
2023-04-16T03:28:58.633Z,6.13
2023-04-16T03:34:02.237Z,8.48
2023-04-16T03:39:07.799Z,5.90
2023-04-16T03:44:11.657Z,7.45
2023-04-16T03:49:15.290Z,4.82
2023-04-16T03:54:22.554Z,6.50
2023-04-16T03:59:26.746Z,4.90
2023-04-16T04:04:30.444Z,6.28
2023-04-16T04:09:35.807Z,7.15
2023-04-16T04:14:39.446Z,8.27
2023-04-16T04:19:54.255Z,10.02
2023-04-16T04:25:07.096Z,8.02
2023-04-16T04:30:11.975Z,6.57
2023-04-16T04:35:15.694Z,5.45
2023-04-16T04:40:21.288Z,8.70
2023-04-16T04:45:25.209Z,9.50
2023-04-16T04:50:29.027Z,6.00
2023-04-16T04:55:34.273Z,7.10
2023-04-16T05:00:37.940Z,5.97
2023-04-16T05:05:41.588Z,6.60
2023-04-16T05:10:46.994Z,9.50
2023-04-16T05:15:51.370Z,6.00
2023-04-16T05:20:55.007Z,9.15
2023-04-16T05:26:00.290Z,11.77
2023-04-16T05:31:04.096Z,8.63
2023-04-16T05:36:08.041Z,12.02
2023-04-16T05:41:13.408Z,9.85
2023-04-16T05:46:17.096Z,5.50
2023-04-16T05:51:20.777Z,8.82
2023-04-16T05:56:26.191Z,8.40
2023-04-16T06:01:29.839Z,8.50
2023-04-16T06:06:33.566Z,10.65
2023-04-16T06:11:38.937Z,7.03
2023-04-16T06:16:42.566Z,10.90
2023-04-16T06:21:46.246Z,7.47
2023-04-16T06:26:51.567Z,6.47
2023-04-16T06:31:55.440Z,8.73
2023-04-16T06:36:59.233Z,8.80
2023-04-16T06:42:05.748Z,9.02
2023-04-16T06:47:09.562Z,8.35
2023-04-16T06:52:13.531Z,9.90
2023-04-16T06:57:19.850Z,9.13
2023-04-16T07:02:23.658Z,9.30
2023-04-16T07:07:27.392Z,8.98
2023-04-16T07:12:33.170Z,8.57
2023-04-16T07:17:36.811Z,10.10
2023-04-16T07:22:40.449Z,8.98
2023-04-16T07:27:45.778Z,11.07
2023-04-16T07:32:50.075Z,11.20
2023-04-16T07:37:53.674Z,9.52
2023-04-16T07:42:59.023Z,9.68
2023-04-16T07:48:02.779Z,11.57
2023-04-16T07:53:06.512Z,7.03
2023-04-16T07:58:11.721Z,8.73
2023-04-16T08:03:15.522Z,10.02
2023-04-16T08:08:19.229Z,13.70
2023-04-16T08:13:24.810Z,11.38
2023-04-16T08:18:28.423Z,9.43
2023-04-16T08:23:32.061Z,7.65
2023-04-16T08:28:37.298Z,9.00
2023-04-16T08:33:41.864Z,6.88
2023-04-16T08:38:45.473Z,8.85
2023-04-16T08:43:55.391Z,9.90
2023-04-16T08:49:01.415Z,7.82
2023-04-16T08:54:06.139Z,13.85
2023-04-16T08:59:11.664Z,7.53
2023-04-16T09:04:16.606Z,10.20
2023-04-16T09:09:22.008Z,9.50
2023-04-16T09:14:27.763Z,15.93
2023-04-16T09:19:31.414Z,11.88
2023-04-16T09:24:35.805Z,8.43
2023-04-16T09:29:41.790Z,11.77
2023-04-16T09:34:59.251Z,8.80
2023-04-16T09:40:03.714Z,8.23
2023-04-16T09:45:09.821Z,9.23
2023-04-16T09:50:18.190Z,9.77
2023-04-16T09:55:27.899Z,10.50
2023-04-16T10:00:33.250Z,9.30
2023-04-16T10:05:36.875Z,7.75
2023-04-16T10:10:41.262Z,9.15
2023-04-16T10:15:47.595Z,8.65
2023-04-16T10:25:57.584Z,10.30
2023-04-16T10:31:04.669Z,10.68
2023-04-16T10:36:12.337Z,7.60
2023-04-16T10:41:16.483Z,10.27
2023-04-16T10:46:23.534Z,12.77
2023-04-16T10:51:30.186Z,8.95
2023-04-16T10:56:34.620Z,7.32
2023-04-16T11:01:43.264Z,8.80
2023-04-16T11:07:02.390Z,11.30
2023-04-16T11:12:12.612Z,7.53
2023-04-16T11:17:18.526Z,11.00
2023-04-16T11:22:22.579Z,7.45
2023-04-16T11:27:26.660Z,10.65
2023-04-16T11:32:33.012Z,5.78
2023-04-16T11:42:41.092Z,8.68
2023-04-16T11:47:48.292Z,8.63
2023-04-16T11:52:52.951Z,9.88
2023-04-16T11:57:56.585Z,7.40
2023-04-16T12:03:04.842Z,9.73
2023-04-16T12:08:09.984Z,11.52
2023-04-16T12:13:15.030Z,11.15
2023-04-16T12:18:21.351Z,9.07
2023-04-16T12:28:29.872Z,8.32
2023-04-16T12:33:35.202Z,10.63
2023-04-16T12:38:38.815Z,7.28
2023-04-16T12:43:42.461Z,8.90
2023-04-16T12:48:47.785Z,8.45
2023-04-16T12:53:51.461Z,7.75
2023-04-16T12:58:55.130Z,11.63
2023-04-16T13:04:00.623Z,14.25
2023-04-16T13:09:04.746Z,11.97
2023-04-16T13:14:09.569Z,11.35
2023-04-16T13:19:14.837Z,12.43
2023-04-16T13:24:18.488Z,13.82
2023-04-16T13:29:22.240Z,8.05
2023-04-16T13:34:27.592Z,9.43
2023-04-16T13:39:31.192Z,9.10
2023-04-16T13:44:34.906Z,7.50
2023-04-16T13:49:40.169Z,6.18
2023-04-16T13:54:43.753Z,8.45
2023-04-16T13:59:47.514Z,8.60
2023-04-16T14:04:52.777Z,10.07
2023-04-16T14:09:56.371Z,7.22
2023-04-16T14:15:00.137Z,9.60
2023-04-16T14:20:05.819Z,8.10
2023-04-16T14:25:09.838Z,7.67
2023-04-16T14:30:13.844Z,7.28
2023-04-16T14:35:20.362Z,7.97
2023-04-16T14:40:23.994Z,7.15
2023-04-16T14:45:27.624Z,8.32
2023-04-16T14:50:34.585Z,8.63
2023-04-16T14:55:38.230Z,5.95
2023-04-16T15:00:41.930Z,6.65
2023-04-16T15:05:47.251Z,7.45
2023-04-16T15:10:51.244Z,8.17
2023-04-16T15:15:54.844Z,7.47
2023-04-16T15:21:00.307Z,9.23
2023-04-16T15:26:03.894Z,6.37
2023-04-16T15:31:07.522Z,5.45
2023-04-16T15:36:12.817Z,5.03
2023-04-16T15:41:16.416Z,5.30
2023-04-16T15:46:20.068Z,5.78
2023-04-16T15:51:25.415Z,6.65
2023-04-16T15:56:29.093Z,5.77
2023-04-16T16:01:32.790Z,3.92
2023-04-16T16:06:38.233Z,6.22
2023-04-16T16:11:41.842Z,5.10
2023-04-16T16:16:45.589Z,7.30
2023-04-16T16:21:50.904Z,6.70
2023-04-16T16:26:54.546Z,4.93
2023-04-16T16:31:58.248Z,3.63
2023-04-16T16:37:05.048Z,6.57
2023-04-16T16:42:08.677Z,3.80
2023-04-16T16:47:12.250Z,4.75
2023-04-16T16:52:18.734Z,4.22
2023-04-16T16:57:22.334Z,4.10
2023-04-16T17:02:26.017Z,3.85
2023-04-16T17:07:31.331Z,4.70
2023-04-16T17:12:34.929Z,3.50
2023-04-16T17:17:38.571Z,3.47
2023-04-16T17:28:10.941Z,3.50
2023-04-16T17:33:14.613Z,2.33
2023-04-16T17:38:19.930Z,5.65
2023-04-16T17:43:23.547Z,11.65
2023-04-16T17:48:27.186Z,2.80
2023-04-16T17:53:32.571Z,4.82
2023-04-16T17:58:36.539Z,3.15
2023-04-16T18:03:40.857Z,4.07
2023-04-16T18:08:46.285Z,3.65
2023-04-16T18:13:50.434Z,3.88
2023-04-16T18:18:54.094Z,3.08
2023-04-16T18:23:59.295Z,3.60
2023-04-16T18:29:03.116Z,4.38
2023-04-16T18:34:06.951Z,4.15
2023-04-16T18:39:13.069Z,2.28
2023-04-16T18:44:16.799Z,4.80
2023-04-16T18:49:20.462Z,5.75
2023-04-16T18:54:25.744Z,3.72
2023-04-16T18:59:29.354Z,6.70
2023-04-16T19:04:33.158Z,4.05
2023-04-16T19:09:38.559Z,4.78
2023-04-16T19:14:42.159Z,4.25
2023-04-16T19:19:45.820Z,2.47
2023-04-16T19:24:51.177Z,4.07
2023-04-16T19:29:55.674Z,3.20
2023-04-16T19:34:59.352Z,4.28
2023-04-16T19:40:04.871Z,3.42
2023-04-16T19:45:09.390Z,4.45
2023-04-16T19:50:13.155Z,3.97
2023-04-16T19:55:18.672Z,3.65
2023-04-16T20:00:25.537Z,3.55
2023-04-16T20:05:29.546Z,2.88
2023-04-16T20:10:34.928Z,2.85
2023-04-16T20:15:38.584Z,3.55
2023-04-16T20:20:42.244Z,2.88
2023-04-16T20:25:47.516Z,3.33
2023-04-16T20:35:54.094Z,2.28
2023-04-16T20:40:59.434Z,3.55
2023-04-16T20:51:07.225Z,2.90
2023-04-16T20:56:13.561Z,3.63
2023-04-16T21:01:17.328Z,3.70
2023-04-16T21:06:21.011Z,2.47
2023-04-16T21:11:26.497Z,3.58
2023-04-16T21:16:30.590Z,3.20
2023-04-16T21:21:34.270Z,3.67
2023-04-16T21:26:39.516Z,5.18
2023-04-16T21:36:46.028Z,4.18
2023-04-16T21:41:51.323Z,5.30
2023-04-16T21:46:54.925Z,3.25
2023-04-16T21:51:58.573Z,3.97
2023-04-16T21:57:03.833Z,6.03
2023-04-16T22:07:10.638Z,5.18
2023-04-16T22:12:15.904Z,3.75
2023-04-16T22:22:22.902Z,3.70
2023-04-16T22:27:28.147Z,5.97
2023-04-16T22:37:34.884Z,5.03
2023-04-16T22:42:42.367Z,2.70
2023-04-16T22:47:46.139Z,4.22
2023-04-16T22:52:52.796Z,1.88
2023-04-16T22:57:58.092Z,2.58
2023-04-16T23:08:04.681Z,4.35
2023-04-16T23:13:10.049Z,2.97
2023-04-16T23:18:13.819Z,3.92
2023-04-16T23:23:17.494Z,3.17
2023-04-16T23:28:22.907Z,2.45
2023-04-16T23:38:29.316Z,3.50
2023-04-16T23:43:34.709Z,1.83
2023-04-16T23:48:38.549Z,2.55
2023-04-16T23:53:42.184Z,2.45
2023-04-16T23:58:47.471Z,2.78
